sensor_id;sensor_type;location;lat;lon;timestamp;temperature;humidity
77218;DHT22;66214;51.302;17.068;2024-03-25T00:00:56;5.62;73.54
77218;DHT22;66214;51.302;17.068;2024-03-25T00:03:39;5.64;73.72
77218;DHT22;66214;51.302;17.068;2024-03-25T00:06:07;5.68;73.70
77218;DHT22;66214;51.302;17.068;2024-03-25T00:08:35;5.72;73.46
77218;DHT22;66214;51.302;17.068;2024-03-25T00:11:04;5.73;73.17
77218;DHT22;66214;51.302;17.068;2024-03-25T00:13:32;5.76;73.04
77218;DHT22;66214;51.302;17.068;2024-03-25T00:16:00;5.76;72.96
77218;DHT22;66214;51.302;17.068;2024-03-25T00:18:28;5.77;72.91
77218;DHT22;66214;51.302;17.068;2024-03-25T00:20:56;5.79;73.22
77218;DHT22;66214;51.302;17.068;2024-03-25T00:23:24;5.81;73.40
77218;DHT22;66214;51.302;17.068;2024-03-25T00:25:53;5.83;73.44
77218;DHT22;66214;51.302;17.068;2024-03-25T00:28:21;5.82;73.28
77218;DHT22;66214;51.302;17.068;2024-03-25T00:30:48;5.82;73.19
77218;DHT22;66214;51.302;17.068;2024-03-25T00:33:17;5.80;73.17
77218;DHT22;66214;51.302;17.068;2024-03-25T00:35:45;5.79;73.35
77218;DHT22;66214;51.302;17.068;2024-03-25T00:38:13;5.77;73.89
77218;DHT22;66214;51.302;17.068;2024-03-25T00:40:41;5.79;73.89
77218;DHT22;66214;51.302;17.068;2024-03-25T00:43:08;5.83;74.04
77218;DHT22;66214;51.302;17.068;2024-03-25T00:45:37;5.84;73.98
77218;DHT22;66214;51.302;17.068;2024-03-25T00:48:05;5.84;73.84
77218;DHT22;66214;51.302;17.068;2024-03-25T00:50:34;5.84;73.81
77218;DHT22;66214;51.302;17.068;2024-03-25T00:53:02;5.84;73.80
77218;DHT22;66214;51.302;17.068;2024-03-25T00:55:30;5.82;74.25
77218;DHT22;66214;51.302;17.068;2024-03-25T00:57:58;5.78;74.75
77218;DHT22;66214;51.302;17.068;2024-03-25T01:00:26;5.76;75.27
77218;DHT22;66214;51.302;17.068;2024-03-25T01:02:54;5.69;75.35
77218;DHT22;66214;51.302;17.068;2024-03-25T01:05:22;5.59;75.43
77218;DHT22;66214;51.302;17.068;2024-03-25T01:07:50;5.46;75.80
77218;DHT22;66214;51.302;17.068;2024-03-25T01:10:18;5.36;76.09
77218;DHT22;66214;51.302;17.068;2024-03-25T01:12:48;5.28;76.10
77218;DHT22;66214;51.302;17.068;2024-03-25T01:15:16;5.21;77.14
77218;DHT22;66214;51.302;17.068;2024-03-25T01:17:44;5.17;77.85
77218;DHT22;66214;51.302;17.068;2024-03-25T01:20:12;5.11;78.35
77218;DHT22;66214;51.302;17.068;2024-03-25T01:22:39;5.04;79.00
77218;DHT22;66214;51.302;17.068;2024-03-25T01:25:07;4.97;79.13
77218;DHT22;66214;51.302;17.068;2024-03-25T01:27:36;4.93;79.33
77218;DHT22;66214;51.302;17.068;2024-03-25T01:30:04;4.90;79.74
77218;DHT22;66214;51.302;17.068;2024-03-25T01:32:33;4.83;80.12
77218;DHT22;66214;51.302;17.068;2024-03-25T01:35:02;4.75;80.69
77218;DHT22;66214;51.302;17.068;2024-03-25T01:37:30;4.68;81.02
77218;DHT22;66214;51.302;17.068;2024-03-25T01:39:58;4.66;81.14
77218;DHT22;66214;51.302;17.068;2024-03-25T01:42:26;4.63;81.66
77218;DHT22;66214;51.302;17.068;2024-03-25T01:44:54;4.64;81.42
77218;DHT22;66214;51.302;17.068;2024-03-25T01:47:22;4.62;81.12
77218;DHT22;66214;51.302;17.068;2024-03-25T01:49:50;4.59;81.24
77218;DHT22;66214;51.302;17.068;2024-03-25T01:52:21;4.57;81.42
77218;DHT22;66214;51.302;17.068;2024-03-25T01:54:50;4.55;81.69
77218;DHT22;66214;51.302;17.068;2024-03-25T01:57:18;4.52;82.09
77218;DHT22;66214;51.302;17.068;2024-03-25T01:59:47;4.49;82.06
77218;DHT22;66214;51.302;17.068;2024-03-25T02:02:16;4.48;82.23
77218;DHT22;66214;51.302;17.068;2024-03-25T02:04:44;4.48;82.22
77218;DHT22;66214;51.302;17.068;2024-03-25T02:07:12;4.50;82.53
77218;DHT22;66214;51.302;17.068;2024-03-25T02:09:42;4.50;82.95
77218;DHT22;66214;51.302;17.068;2024-03-25T02:12:10;4.49;83.10
77218;DHT22;66214;51.302;17.068;2024-03-25T02:14:38;4.47;82.86
77218;DHT22;66214;51.302;17.068;2024-03-25T02:17:06;4.48;82.67
77218;DHT22;66214;51.302;17.068;2024-03-25T02:19:36;4.49;82.90
77218;DHT22;66214;51.302;17.068;2024-03-25T02:22:06;4.50;82.88
77218;DHT22;66214;51.302;17.068;2024-03-25T02:24:34;4.50;83.00
77218;DHT22;66214;51.302;17.068;2024-03-25T02:27:02;4.51;82.87
77218;DHT22;66214;51.302;17.068;2024-03-25T02:29:35;4.51;83.47
77218;DHT22;66214;51.302;17.068;2024-03-25T02:32:03;4.53;83.28
77218;DHT22;66214;51.302;17.068;2024-03-25T02:34:32;4.56;83.37
77218;DHT22;66214;51.302;17.068;2024-03-25T02:36:59;4.56;83.70
77218;DHT22;66214;51.302;17.068;2024-03-25T02:39:28;4.57;83.67
77218;DHT22;66214;51.302;17.068;2024-03-25T02:41:56;4.57;83.83
77218;DHT22;66214;51.302;17.068;2024-03-25T02:44:24;4.58;84.17
77218;DHT22;66214;51.302;17.068;2024-03-25T02:46:52;4.59;84.31
77218;DHT22;66214;51.302;17.068;2024-03-25T02:49:20;4.59;84.34
77218;DHT22;66214;51.302;17.068;2024-03-25T02:51:48;4.59;84.37
77218;DHT22;66214;51.302;17.068;2024-03-25T02:54:16;4.57;84.46
77218;DHT22;66214;51.302;17.068;2024-03-25T02:56:44;4.59;84.56
77218;DHT22;66214;51.302;17.068;2024-03-25T02:59:12;4.61;84.46
77218;DHT22;66214;51.302;17.068;2024-03-25T03:01:40;4.62;84.43
77218;DHT22;66214;51.302;17.068;2024-03-25T03:04:08;4.62;84.24
77218;DHT22;66214;51.302;17.068;2024-03-25T03:06:36;4.62;83.99
77218;DHT22;66214;51.302;17.068;2024-03-25T03:09:04;4.65;84.03
77218;DHT22;66214;51.302;17.068;2024-03-25T03:11:32;4.65;84.15
77218;DHT22;66214;51.302;17.068;2024-03-25T03:14:00;4.66;84.22
77218;DHT22;66214;51.302;17.068;2024-03-25T03:16:28;4.64;84.34
77218;DHT22;66214;51.302;17.068;2024-03-25T03:18:56;4.62;84.28
77218;DHT22;66214;51.302;17.068;2024-03-25T03:21:24;4.63;84.00
77218;DHT22;66214;51.302;17.068;2024-03-25T03:23:52;4.65;84.18
77218;DHT22;66214;51.302;17.068;2024-03-25T03:26:20;4.66;84.66
77218;DHT22;66214;51.302;17.068;2024-03-25T03:28:48;4.67;84.73
77218;DHT22;66214;51.302;17.068;2024-03-25T03:31:16;4.71;84.80
77218;DHT22;66214;51.302;17.068;2024-03-25T03:33:44;4.72;84.92
77218;DHT22;66214;51.302;17.068;2024-03-25T03:36:12;4.69;85.20
77218;DHT22;66214;51.302;17.068;2024-03-25T03:38:45;4.68;85.33
77218;DHT22;66214;51.302;17.068;2024-03-25T03:41:14;4.70;85.22
77218;DHT22;66214;51.302;17.068;2024-03-25T03:43:42;4.70;85.70
77218;DHT22;66214;51.302;17.068;2024-03-25T03:46:09;4.68;85.71
77218;DHT22;66214;51.302;17.068;2024-03-25T03:48:38;4.69;85.53
77218;DHT22;66214;51.302;17.068;2024-03-25T03:51:06;4.70;85.36
77218;DHT22;66214;51.302;17.068;2024-03-25T03:53:36;4.71;85.60
77218;DHT22;66214;51.302;17.068;2024-03-25T03:56:04;4.74;85.57
77218;DHT22;66214;51.302;17.068;2024-03-25T03:58:33;4.74;85.74
77218;DHT22;66214;51.302;17.068;2024-03-25T04:01:01;4.72;85.99
77218;DHT22;66214;51.302;17.068;2024-03-25T04:03:31;4.72;85.74
77218;DHT22;66214;51.302;17.068;2024-03-25T04:05:59;4.75;85.82
77218;DHT22;66214;51.302;17.068;2024-03-25T04:08:40;4.76;85.92
77218;DHT22;66214;51.302;17.068;2024-03-25T04:11:08;4.78;85.85
77218;DHT22;66214;51.302;17.068;2024-03-25T04:13:37;4.81;85.64
77218;DHT22;66214;51.302;17.068;2024-03-25T04:16:05;4.83;85.16
77218;DHT22;66214;51.302;17.068;2024-03-25T04:18:34;4.85;84.73
77218;DHT22;66214;51.302;17.068;2024-03-25T04:21:02;4.84;84.79
77218;DHT22;66214;51.302;17.068;2024-03-25T04:23:31;4.82;84.82
77218;DHT22;66214;51.302;17.068;2024-03-25T04:26:00;4.81;85.08
77218;DHT22;66214;51.302;17.068;2024-03-25T04:28:29;4.82;85.01
77218;DHT22;66214;51.302;17.068;2024-03-25T04:30:57;4.82;85.06
77218;DHT22;66214;51.302;17.068;2024-03-25T04:33:26;4.82;84.89
77218;DHT22;66214;51.302;17.068;2024-03-25T04:35:56;4.82;84.69
77218;DHT22;66214;51.302;17.068;2024-03-25T04:38:24;4.80;84.73
77218;DHT22;66214;51.302;17.068;2024-03-25T04:40:52;4.80;85.05
77218;DHT22;66214;51.302;17.068;2024-03-25T04:43:20;4.81;85.20
77218;DHT22;66214;51.302;17.068;2024-03-25T04:45:49;4.82;85.16
77218;DHT22;66214;51.302;17.068;2024-03-25T04:48:16;4.83;85.27
77218;DHT22;66214;51.302;17.068;2024-03-25T04:50:44;4.82;85.21
77218;DHT22;66214;51.302;17.068;2024-03-25T04:53:12;4.82;85.28
77218;DHT22;66214;51.302;17.068;2024-03-25T04:55:40;4.83;85.20
77218;DHT22;66214;51.302;17.068;2024-03-25T04:58:08;4.84;85.16
77218;DHT22;66214;51.302;17.068;2024-03-25T05:03:59;4.82;85.45
77218;DHT22;66214;51.302;17.068;2024-03-25T05:06:27;4.85;85.16
77218;DHT22;66214;51.302;17.068;2024-03-25T05:08:55;4.85;85.16
77218;DHT22;66214;51.302;17.068;2024-03-25T05:11:23;4.85;85.44
77218;DHT22;66214;51.302;17.068;2024-03-25T05:13:51;4.88;85.46
77218;DHT22;66214;51.302;17.068;2024-03-25T05:16:19;4.91;85.31
77218;DHT22;66214;51.302;17.068;2024-03-25T05:18:48;4.97;85.26
77218;DHT22;66214;51.302;17.068;2024-03-25T05:21:16;5.04;85.19
77218;DHT22;66214;51.302;17.068;2024-03-25T05:23:44;5.08;84.96
77218;DHT22;66214;51.302;17.068;2024-03-25T05:26:12;5.08;84.78
77218;DHT22;66214;51.302;17.068;2024-03-25T05:28:40;5.09;84.60
77218;DHT22;66214;51.302;17.068;2024-03-25T05:31:09;5.11;84.52
77218;DHT22;66214;51.302;17.068;2024-03-25T05:33:38;5.16;84.61
77218;DHT22;66214;51.302;17.068;2024-03-25T05:36:07;5.18;84.75
77218;DHT22;66214;51.302;17.068;2024-03-25T05:38:35;5.21;84.92
77218;DHT22;66214;51.302;17.068;2024-03-25T05:41:03;5.27;84.99
77218;DHT22;66214;51.302;17.068;2024-03-25T05:43:31;5.28;84.55
77218;DHT22;66214;51.302;17.068;2024-03-25T05:45:59;5.28;84.14
77218;DHT22;66214;51.302;17.068;2024-03-25T05:48:28;5.28;83.92
77218;DHT22;66214;51.302;17.068;2024-03-25T05:53:29;5.27;83.97
77218;DHT22;66214;51.302;17.068;2024-03-25T05:55:58;5.30;84.21
77218;DHT22;66214;51.302;17.068;2024-03-25T06:01:54;5.33;84.09
77218;DHT22;66214;51.302;17.068;2024-03-25T06:04:22;5.34;83.57
77218;DHT22;66214;51.302;17.068;2024-03-25T06:06:50;5.31;83.19
77218;DHT22;66214;51.302;17.068;2024-03-25T06:09:18;5.28;82.93
77218;DHT22;66214;51.302;17.068;2024-03-25T06:11:45;5.27;83.13
77218;DHT22;66214;51.302;17.068;2024-03-25T06:14:13;5.28;83.41
77218;DHT22;66214;51.302;17.068;2024-03-25T06:16:41;5.30;83.63
77218;DHT22;66214;51.302;17.068;2024-03-25T06:19:10;5.30;83.59
77218;DHT22;66214;51.302;17.068;2024-03-25T06:21:38;5.32;83.34
77218;DHT22;66214;51.302;17.068;2024-03-25T06:24:06;5.33;83.08
77218;DHT22;66214;51.302;17.068;2024-03-25T06:26:34;5.33;82.81
77218;DHT22;66214;51.302;17.068;2024-03-25T06:29:02;5.31;82.62
77218;DHT22;66214;51.302;17.068;2024-03-25T06:31:30;5.31;82.76
77218;DHT22;66214;51.302;17.068;2024-03-25T06:34:17;5.33;83.04
77218;DHT22;66214;51.302;17.068;2024-03-25T06:36:45;5.39;83.33
77218;DHT22;66214;51.302;17.068;2024-03-25T06:39:14;5.40;83.33
77218;DHT22;66214;51.302;17.068;2024-03-25T06:41:42;5.38;83.04
77218;DHT22;66214;51.302;17.068;2024-03-25T06:44:10;5.36;82.87
77218;DHT22;66214;51.302;17.068;2024-03-25T06:46:38;5.35;82.57
77218;DHT22;66214;51.302;17.068;2024-03-25T06:49:06;5.33;82.48
77218;DHT22;66214;51.302;17.068;2024-03-25T06:51:34;5.33;82.72
77218;DHT22;66214;51.302;17.068;2024-03-25T06:54:02;5.32;83.14
77218;DHT22;66214;51.302;17.068;2024-03-25T06:56:30;5.31;83.34
77218;DHT22;66214;51.302;17.068;2024-03-25T06:58:58;5.34;83.44
77218;DHT22;66214;51.302;17.068;2024-03-25T07:01:26;5.36;83.24
77218;DHT22;66214;51.302;17.068;2024-03-25T07:03:53;5.38;83.01
77218;DHT22;66214;51.302;17.068;2024-03-25T07:06:21;5.42;82.80
77218;DHT22;66214;51.302;17.068;2024-03-25T07:08:50;5.47;82.56
77218;DHT22;66214;51.302;17.068;2024-03-25T07:11:18;5.54;82.87
77218;DHT22;66214;51.302;17.068;2024-03-25T07:13:46;5.56;83.14
77218;DHT22;66214;51.302;17.068;2024-03-25T07:16:14;5.61;83.38
77218;DHT22;66214;51.302;17.068;2024-03-25T07:18:42;5.67;83.51
77218;DHT22;66214;51.302;17.068;2024-03-25T07:21:10;5.73;83.23
77218;DHT22;66214;51.302;17.068;2024-03-25T07:23:38;5.76;82.78
77218;DHT22;66214;51.302;17.068;2024-03-25T07:26:06;5.77;82.62
77218;DHT22;66214;51.302;17.068;2024-03-25T07:28:34;5.78;82.45
77218;DHT22;66214;51.302;17.068;2024-03-25T07:31:02;5.84;82.60
77218;DHT22;66214;51.302;17.068;2024-03-25T07:33:30;5.89;82.96
77218;DHT22;66214;51.302;17.068;2024-03-25T07:35:58;5.92;83.12
77218;DHT22;66214;51.302;17.068;2024-03-25T07:38:26;5.89;82.88
77218;DHT22;66214;51.302;17.068;2024-03-25T07:40:54;5.97;82.61
77218;DHT22;66214;51.302;17.068;2024-03-25T07:43:22;6.11;82.28
77218;DHT22;66214;51.302;17.068;2024-03-25T07:45:50;6.28;82.00
77218;DHT22;66214;51.302;17.068;2024-03-25T07:48:18;6.52;81.83
77218;DHT22;66214;51.302;17.068;2024-03-25T07:50:46;6.76;81.86
77218;DHT22;66214;51.302;17.068;2024-03-25T07:53:14;6.90;82.02
77218;DHT22;66214;51.302;17.068;2024-03-25T07:55:42;6.92;81.86
77218;DHT22;66214;51.302;17.068;2024-03-25T07:58:09;6.87;81.44
77218;DHT22;66214;51.302;17.068;2024-03-25T08:03:59;6.66;80.92
77218;DHT22;66214;51.302;17.068;2024-03-25T08:06:27;6.63;80.65
77218;DHT22;66214;51.302;17.068;2024-03-25T08:08:55;6.63;80.98
77218;DHT22;66214;51.302;17.068;2024-03-25T08:11:24;6.66;81.30
77218;DHT22;66214;51.302;17.068;2024-03-25T08:13:53;6.69;81.35
77218;DHT22;66214;51.302;17.068;2024-03-25T08:16:21;6.75;80.88
77218;DHT22;66214;51.302;17.068;2024-03-25T08:18:49;6.80;80.50
77218;DHT22;66214;51.302;17.068;2024-03-25T08:21:17;6.89;80.24
77218;DHT22;66214;51.302;17.068;2024-03-25T08:23:45;7.01;79.80
77218;DHT22;66214;51.302;17.068;2024-03-25T08:26:14;7.13;79.72
77218;DHT22;66214;51.302;17.068;2024-03-25T08:28:42;7.22;80.10
77218;DHT22;66214;51.302;17.068;2024-03-25T08:31:10;7.25;79.89
77218;DHT22;66214;51.302;17.068;2024-03-25T08:33:38;7.22;79.52
77218;DHT22;66214;51.302;17.068;2024-03-25T08:36:06;7.16;79.13
77218;DHT22;66214;51.302;17.068;2024-03-25T08:38:35;7.09;78.93
77218;DHT22;66214;51.302;17.068;2024-03-25T08:41:07;7.11;78.70
77218;DHT22;66214;51.302;17.068;2024-03-25T08:43:38;7.23;78.32
77218;DHT22;66214;51.302;17.068;2024-03-25T08:46:06;7.41;78.06
77218;DHT22;66214;51.302;17.068;2024-03-25T08:48:34;7.54;78.20
77218;DHT22;66214;51.302;17.068;2024-03-25T08:51:03;7.63;78.45
77218;DHT22;66214;51.302;17.068;2024-03-25T08:53:31;7.74;78.28
77218;DHT22;66214;51.302;17.068;2024-03-25T08:56:00;7.83;77.52
77218;DHT22;66214;51.302;17.068;2024-03-25T08:58:28;7.88;76.93
77218;DHT22;66214;51.302;17.068;2024-03-25T09:00:56;7.92;76.78
77218;DHT22;66214;51.302;17.068;2024-03-25T09:03:24;7.93;76.37
77218;DHT22;66214;51.302;17.068;2024-03-25T09:05:52;7.88;76.52
77218;DHT22;66214;51.302;17.068;2024-03-25T09:08:20;7.85;77.03
77218;DHT22;66214;51.302;17.068;2024-03-25T09:10:49;7.86;77.10
77218;DHT22;66214;51.302;17.068;2024-03-25T09:13:34;7.80;76.42
77218;DHT22;66214;51.302;17.068;2024-03-25T09:16:02;7.70;76.19
77218;DHT22;66214;51.302;17.068;2024-03-25T09:18:33;7.57;76.41
77218;DHT22;66214;51.302;17.068;2024-03-25T09:21:00;7.45;76.52
77218;DHT22;66214;51.302;17.068;2024-03-25T09:26:58;7.22;78.09
77218;DHT22;66214;51.302;17.068;2024-03-25T09:29:26;7.22;78.23
77218;DHT22;66214;51.302;17.068;2024-03-25T09:31:55;7.34;78.31
77218;DHT22;66214;51.302;17.068;2024-03-25T09:34:23;7.49;77.95
77218;DHT22;66214;51.302;17.068;2024-03-25T09:36:52;7.65;77.30
77218;DHT22;66214;51.302;17.068;2024-03-25T09:39:19;7.72;76.95
77218;DHT22;66214;51.302;17.068;2024-03-25T09:41:47;7.82;76.92
77218;DHT22;66214;51.302;17.068;2024-03-25T09:44:18;7.97;76.43
77218;DHT22;66214;51.302;17.068;2024-03-25T09:46:51;8.00;76.60
77218;DHT22;66214;51.302;17.068;2024-03-25T09:49:19;8.15;76.90
77218;DHT22;66214;51.302;17.068;2024-03-25T09:51:48;8.31;76.63
77218;DHT22;66214;51.302;17.068;2024-03-25T09:54:25;8.47;76.08
77218;DHT22;66214;51.302;17.068;2024-03-25T09:57:05;8.73;74.94
77218;DHT22;66214;51.302;17.068;2024-03-25T09:59:35;9.01;74.14
77218;DHT22;66214;51.302;17.068;2024-03-25T10:02:03;9.26;73.33
77218;DHT22;66214;51.302;17.068;2024-03-25T10:04:31;9.43;72.83
77218;DHT22;66214;51.302;17.068;2024-03-25T10:07:00;9.36;72.22
77218;DHT22;66214;51.302;17.068;2024-03-25T10:09:28;9.13;72.15
77218;DHT22;66214;51.302;17.068;2024-03-25T10:11:56;8.94;72.67
77218;DHT22;66214;51.302;17.068;2024-03-25T10:14:24;8.86;73.07
77218;DHT22;66214;51.302;17.068;2024-03-25T10:16:52;8.72;73.33
77218;DHT22;66214;51.302;17.068;2024-03-25T10:19:20;8.56;73.39
77218;DHT22;66214;51.302;17.068;2024-03-25T10:21:48;8.48;73.42
77218;DHT22;66214;51.302;17.068;2024-03-25T10:24:17;8.49;73.50
77218;DHT22;66214;51.302;17.068;2024-03-25T10:26:51;8.47;73.47
77218;DHT22;66214;51.302;17.068;2024-03-25T10:29:19;8.46;73.47
77218;DHT22;66214;51.302;17.068;2024-03-25T10:32:00;8.57;73.36
77218;DHT22;66214;51.302;17.068;2024-03-25T10:34:32;8.77;73.40
77218;DHT22;66214;51.302;17.068;2024-03-25T10:39:50;9.12;73.03
77218;DHT22;66214;51.302;17.068;2024-03-25T10:42:26;9.23;72.56
77218;DHT22;66214;51.302;17.068;2024-03-25T10:44:59;9.41;72.26
77218;DHT22;66214;51.302;17.068;2024-03-25T10:47:44;9.29;71.68
77218;DHT22;66214;51.302;17.068;2024-03-25T10:50:13;9.09;71.81
77218;DHT22;66214;51.302;17.068;2024-03-25T10:52:47;8.89;72.26
77218;DHT22;66214;51.302;17.068;2024-03-25T10:55:15;8.93;72.82
77218;DHT22;66214;51.302;17.068;2024-03-25T10:57:44;9.77;73.25
77218;DHT22;66214;51.302;17.068;2024-03-25T11:00:12;10.40;73.21
77218;DHT22;66214;51.302;17.068;2024-03-25T11:04:02;10.68;71.79
77218;DHT22;66214;51.302;17.068;2024-03-25T11:06:32;10.92;71.17
77218;DHT22;66214;51.302;17.068;2024-03-25T11:09:00;11.20;70.99
77218;DHT22;66214;51.302;17.068;2024-03-25T11:11:33;11.20;70.75
77218;DHT22;66214;51.302;17.068;2024-03-25T11:14:03;11.05;69.49
77218;DHT22;66214;51.302;17.068;2024-03-25T11:16:33;11.03;68.16
77218;DHT22;66214;51.302;17.068;2024-03-25T11:19:03;11.08;66.92
77218;DHT22;66214;51.302;17.068;2024-03-25T11:21:38;11.25;66.25
77218;DHT22;66214;51.302;17.068;2024-03-25T11:24:06;11.69;65.78
77218;DHT22;66214;51.302;17.068;2024-03-25T11:26:40;11.31;66.32
77218;DHT22;66214;51.302;17.068;2024-03-25T11:29:09;10.70;67.19
77218;DHT22;66214;51.302;17.068;2024-03-25T11:31:39;10.06;68.32
77218;DHT22;66214;51.302;17.068;2024-03-25T11:34:08;9.56;69.77
77218;DHT22;66214;51.302;17.068;2024-03-25T11:36:36;9.15;71.04
77218;DHT22;66214;51.302;17.068;2024-03-25T11:39:04;8.80;72.05
77218;DHT22;66214;51.302;17.068;2024-03-25T11:41:40;8.52;73.15
77218;DHT22;66214;51.302;17.068;2024-03-25T11:44:09;8.51;73.55
77218;DHT22;66214;51.302;17.068;2024-03-25T11:46:40;8.78;73.41
77218;DHT22;66214;51.302;17.068;2024-03-25T11:49:15;9.12;73.36
77218;DHT22;66214;51.302;17.068;2024-03-25T11:51:47;9.30;73.12
77218;DHT22;66214;51.302;17.068;2024-03-25T11:54:15;9.42;73.23
77218;DHT22;66214;51.302;17.068;2024-03-25T11:56:43;10.01;73.26
77218;DHT22;66214;51.302;17.068;2024-03-25T11:59:11;11.12;72.48
77218;DHT22;66214;51.302;17.068;2024-03-25T12:01:44;11.44;71.60
77218;DHT22;66214;51.302;17.068;2024-03-25T12:04:15;11.32;69.68
77218;DHT22;66214;51.302;17.068;2024-03-25T12:06:45;11.04;69.08
77218;DHT22;66214;51.302;17.068;2024-03-25T12:09:13;10.88;68.69
77218;DHT22;66214;51.302;17.068;2024-03-25T12:12:00;10.90;67.96
77218;DHT22;66214;51.302;17.068;2024-03-25T12:14:31;11.24;67.44
77218;DHT22;66214;51.302;17.068;2024-03-25T12:16:59;11.02;67.73
77218;DHT22;66214;51.302;17.068;2024-03-25T12:19:30;10.69;68.05
77218;DHT22;66214;51.302;17.068;2024-03-25T12:22:02;10.45;68.48
77218;DHT22;66214;51.302;17.068;2024-03-25T12:24:38;10.26;69.44
77218;DHT22;66214;51.302;17.068;2024-03-25T12:27:06;10.25;70.41
77218;DHT22;66214;51.302;17.068;2024-03-25T12:29:39;10.16;69.90
77218;DHT22;66214;51.302;17.068;2024-03-25T12:32:09;10.06;69.46
77218;DHT22;66214;51.302;17.068;2024-03-25T12:34:38;10.36;69.46
77218;DHT22;66214;51.302;17.068;2024-03-25T12:37:05;10.77;68.72
77218;DHT22;66214;51.302;17.068;2024-03-25T12:39:34;11.13;68.78
77218;DHT22;66214;51.302;17.068;2024-03-25T12:42:18;11.37;68.14
77218;DHT22;66214;51.302;17.068;2024-03-25T12:44:46;12.31;66.94
77218;DHT22;66214;51.302;17.068;2024-03-25T12:47:15;12.16;66.30
77218;DHT22;66214;51.302;17.068;2024-03-25T12:49:43;11.86;65.83
77218;DHT22;66214;51.302;17.068;2024-03-25T12:52:11;12.10;65.75
77218;DHT22;66214;51.302;17.068;2024-03-25T12:54:39;12.39;65.58
77218;DHT22;66214;51.302;17.068;2024-03-25T12:57:09;13.60;63.81
77218;DHT22;66214;51.302;17.068;2024-03-25T12:59:39;13.88;61.78
77218;DHT22;66214;51.302;17.068;2024-03-25T13:02:08;13.76;60.90
77218;DHT22;66214;51.302;17.068;2024-03-25T13:04:45;13.66;60.47
77218;DHT22;66214;51.302;17.068;2024-03-25T13:07:15;13.51;60.59
77218;DHT22;66214;51.302;17.068;2024-03-25T13:09:43;13.17;60.38
77218;DHT22;66214;51.302;17.068;2024-03-25T13:12:11;12.70;60.35
77218;DHT22;66214;51.302;17.068;2024-03-25T13:14:39;12.59;60.77
77218;DHT22;66214;51.302;17.068;2024-03-25T13:17:07;13.13;60.60
77218;DHT22;66214;51.302;17.068;2024-03-25T13:19:35;13.40;59.30
77218;DHT22;66214;51.302;17.068;2024-03-25T13:22:03;14.53;58.06
77218;DHT22;66214;51.302;17.068;2024-03-25T13:24:33;15.65;56.57
77218;DHT22;66214;51.302;17.068;2024-03-25T13:27:01;15.69;54.31
77218;DHT22;66214;51.302;17.068;2024-03-25T13:29:29;15.43;53.66
77218;DHT22;66214;51.302;17.068;2024-03-25T13:31:57;14.92;54.02
77218;DHT22;66214;51.302;17.068;2024-03-25T13:34:25;14.32;54.90
77218;DHT22;66214;51.302;17.068;2024-03-25T13:36:54;13.74;55.71
77218;DHT22;66214;51.302;17.068;2024-03-25T13:39:22;13.36;56.77
77218;DHT22;66214;51.302;17.068;2024-03-25T13:41:50;13.04;57.76
77218;DHT22;66214;51.302;17.068;2024-03-25T13:44:18;12.59;58.51
77218;DHT22;66214;51.302;17.068;2024-03-25T13:46:46;13.00;59.16
77218;DHT22;66214;51.302;17.068;2024-03-25T13:49:14;14.47;57.96
77218;DHT22;66214;51.302;17.068;2024-03-25T13:51:46;15.65;55.09
77218;DHT22;66214;51.302;17.068;2024-03-25T13:54:14;16.60;53.41
77218;DHT22;66214;51.302;17.068;2024-03-25T13:56:45;17.28;52.32
77218;DHT22;66214;51.302;17.068;2024-03-25T13:59:13;18.06;49.72
77218;DHT22;66214;51.302;17.068;2024-03-25T14:03:59;18.94;48.10
77218;DHT22;66214;51.302;17.068;2024-03-25T14:06:27;19.53;46.30
77218;DHT22;66214;51.302;17.068;2024-03-25T14:08:55;19.94;45.81
77218;DHT22;66214;51.302;17.068;2024-03-25T14:11:23;20.38;44.19
77218;DHT22;66214;51.302;17.068;2024-03-25T14:13:51;20.54;42.45
77218;DHT22;66214;51.302;17.068;2024-03-25T14:16:19;20.30;42.82
77218;DHT22;66214;51.302;17.068;2024-03-25T14:18:47;20.65;42.20
77218;DHT22;66214;51.302;17.068;2024-03-25T14:21:15;20.87;41.10
77218;DHT22;66214;51.302;17.068;2024-03-25T14:23:43;20.49;41.29
77218;DHT22;66214;51.302;17.068;2024-03-25T14:26:13;19.83;41.95
77218;DHT22;66214;51.302;17.068;2024-03-25T14:28:41;18.57;43.07
77218;DHT22;66214;51.302;17.068;2024-03-25T14:31:09;17.42;43.93
77218;DHT22;66214;51.302;17.068;2024-03-25T14:33:37;16.45;44.81
77218;DHT22;66214;51.302;17.068;2024-03-25T14:36:06;15.55;46.08
77218;DHT22;66214;51.302;17.068;2024-03-25T14:38:42;14.84;47.69
77218;DHT22;66214;51.302;17.068;2024-03-25T14:41:12;14.38;48.65
77218;DHT22;66214;51.302;17.068;2024-03-25T14:43:40;13.90;49.41
77218;DHT22;66214;51.302;17.068;2024-03-25T14:46:09;13.44;50.47
77218;DHT22;66214;51.302;17.068;2024-03-25T14:48:37;12.98;51.44
77218;DHT22;66214;51.302;17.068;2024-03-25T14:51:05;12.48;52.47
77218;DHT22;66214;51.302;17.068;2024-03-25T14:53:33;11.99;54.20
77218;DHT22;66214;51.302;17.068;2024-03-25T14:56:01;11.39;56.82
77218;DHT22;66214;51.302;17.068;2024-03-25T14:58:31;10.65;58.74
77218;DHT22;66214;51.302;17.068;2024-03-25T15:00:59;10.04;59.81
77218;DHT22;66214;51.302;17.068;2024-03-25T15:03:26;9.63;60.77
77218;DHT22;66214;51.302;17.068;2024-03-25T15:05:54;9.60;61.13
77218;DHT22;66214;51.302;17.068;2024-03-25T15:08:22;10.32;61.21
77218;DHT22;66214;51.302;17.068;2024-03-25T15:10:53;10.42;62.21
77218;DHT22;66214;51.302;17.068;2024-03-25T15:13:20;10.24;63.01
77218;DHT22;66214;51.302;17.068;2024-03-25T15:15:48;10.00;63.09
77218;DHT22;66214;51.302;17.068;2024-03-25T15:18:16;10.14;62.77
77218;DHT22;66214;51.302;17.068;2024-03-25T15:20:44;10.93;62.12
77218;DHT22;66214;51.302;17.068;2024-03-25T15:23:12;12.25;60.48
77218;DHT22;66214;51.302;17.068;2024-03-25T15:25:41;12.54;59.87
77218;DHT22;66214;51.302;17.068;2024-03-25T15:28:09;13.19;58.91
77218;DHT22;66214;51.302;17.068;2024-03-25T15:30:37;13.13;58.52
77218;DHT22;66214;51.302;17.068;2024-03-25T15:33:05;13.37;58.34
77218;DHT22;66214;51.302;17.068;2024-03-25T15:35:33;14.44;56.66
77218;DHT22;66214;51.302;17.068;2024-03-25T15:38:01;15.58;54.60
77218;DHT22;66214;51.302;17.068;2024-03-25T15:40:29;15.78;53.88
77218;DHT22;66214;51.302;17.068;2024-03-25T15:42:58;14.97;54.47
77218;DHT22;66214;51.302;17.068;2024-03-25T15:45:28;14.22;54.86
77218;DHT22;66214;51.302;17.068;2024-03-25T15:47:57;13.67;55.59
77218;DHT22;66214;51.302;17.068;2024-03-25T15:50:25;13.67;55.34
77218;DHT22;66214;51.302;17.068;2024-03-25T15:52:53;13.12;55.95
77218;DHT22;66214;51.302;17.068;2024-03-25T15:55:21;12.92;56.28
77218;DHT22;66214;51.302;17.068;2024-03-25T15:57:49;12.66;56.60
77218;DHT22;66214;51.302;17.068;2024-03-25T16:00:17;12.23;57.20